Dream Jasmine — 3ETG6 — position and weather

sailwx.info

Track history (hours):
 
Tides and Currents Weather Stations Pressure Air Temp Water Temp Dewpoint Dewpoint Depression Visibility Wind Speed Wind Dir Waves Ship Positions

Dream Jasmine

Last reported at 2017-Nov-13 02:00 UTC. Time now 2017-Nov-19 01:10 UTC.
Position N 35°25' E 139°41'.

Length 186 m; draft 7.1 m.

Type: Cargo ship. MMSI: 370552000.

Date/timePositionNaut miles runAvg speedWind from/ knotsBaromVisibWave heightAir tempDewpointWater temp
2017-Nov-13 02:00N 35°25' E 139°41'0 0.7
2017-Nov-13 01:29N 35°25' E 139°41'0 0.0
2017-Nov-13 01:00N 35°25' E 139°41'0 0.0
2017-Nov-13 00:30N 35°25' E 139°41'0 0.1
2017-Nov-13 00:00N 35°25' E 139°41'0 0.0
2017-Nov-12 23:30N 35°25' E 139°41'0 0.0
2017-Nov-12 23:00N 35°25' E 139°41'0 0.1
2017-Nov-12 22:30N 35°25' E 139°41'2 3.2
2017-Nov-12 22:00N 35°25' E 139°43'0 0.3
2017-Nov-12 21:30N 35°25' E 139°43'0 0.1
2017-Nov-12 21:00N 35°25' E 139°43'0 0.0
2017-Nov-12 20:27N 35°25' E 139°43'0 0.0
2017-Nov-12 20:00N 35°25' E 139°43'0 0.0
2017-Nov-12 19:30N 35°25' E 139°43'0 0.0
2017-Nov-12 19:00N 35°25' E 139°43'0 0.0
2017-Nov-12 18:30N 35°25' E 139°43'0 0.0
2017-Nov-12 18:00N 35°25' E 139°43'0 0.0
2017-Nov-12 17:27N 35°25' E 139°43'0 0.0
2017-Nov-12 17:00N 35°25' E 139°43'0 0.0
2017-Nov-12 16:30N 35°25' E 139°43'0 0.0
2017-Nov-12 16:00N 35°25' E 139°43'0 0.0
2017-Nov-12 15:30N 35°25' E 139°43'0 0.1
2017-Nov-12 15:00N 35°25' E 139°43'0 0.0
2017-Nov-12 14:30N 35°25' E 139°43'0 0.0
2017-Nov-12 14:00N 35°25' E 139°43'0 0.0
2017-Nov-12 13:30N 35°25' E 139°43'0 0.0
2017-Nov-12 13:00N 35°25' E 139°43'0 0.0
2017-Nov-12 12:30N 35°25' E 139°43'0 0.0
2017-Nov-12 12:00N 35°25' E 139°43'0 0.0
2017-Nov-12 11:30N 35°25' E 139°43'0 0.0
2017-Nov-12 11:00N 35°25' E 139°43'0 0.0
2017-Nov-12 10:30N 35°25' E 139°43'0 0.0
2017-Nov-12 10:00N 35°25' E 139°43'0 0.0
2017-Nov-12 09:30N 35°25' E 139°43'0 0.0
2017-Nov-12 09:00N 35°25' E 139°43'0 0.0
2017-Nov-12 08:30N 35°25' E 139°43'0 0.0
2017-Nov-12 08:00N 35°25' E 139°43'0 0.0
2017-Nov-12 07:30N 35°25' E 139°43'0 0.0
2017-Nov-12 07:00N 35°25' E 139°43'0 0.0
2017-Nov-12 06:30N 35°25' E 139°43'0 0.0
2017-Nov-12 06:00N 35°25' E 139°43'0 0.0
2017-Nov-12 05:30N 35°25' E 139°43'0 0.0
2017-Nov-12 05:00N 35°25' E 139°43'0 0.0
2017-Nov-12 04:30N 35°25' E 139°43'0 0.0
2017-Nov-12 04:00N 35°25' E 139°43'0 0.0
2017-Nov-12 03:30N 35°25' E 139°43'0 0.1
2017-Nov-12 03:00N 35°25' E 139°43'0 0.0
2017-Nov-12 02:30N 35°25' E 139°43'0 0.0
2017-Nov-12 02:00N 35°25' E 139°43'0 0.0
2017-Nov-12 01:30N 35°25' E 139°43'0 0.0
2017-Nov-12 01:00N 35°25' E 139°43'0 0.5
2017-Nov-12 00:30N 35°25' E 139°43'4 7.9
2017-Nov-12 00:00N 35°21' E 139°43'510.4
2017-Nov-11 23:30N 35°16' E 139°46'5 9.6
2017-Nov-11 23:00N 35°12' E 139°47'4 7.9
2017-Nov-11 22:30N 35°08' E 139°46'5 9.2
2017-Nov-11 22:00N 35°04' E 139°43'5 9.2
2017-Nov-11 21:30N 34°60' E 139°41'5 9.1
2017-Nov-11 21:00N 34°56' E 139°38'3 5.2
2017-Nov-11 20:30N 34°54' E 139°36'1 1.0
2017-Nov-11 20:00N 34°54' E 139°36'3 6.1
2017-Nov-11 19:30N 34°51' E 139°36'  
Track history (hours):
 
Tides and Currents Weather Stations Pressure Air Temp Water Temp Dewpoint Dewpoint Depression Visibility Wind Speed Wind Dir Waves Ship Positions

Dream Jasmine

Last reported at 2017-Nov-13 02:00 UTC. Time now 2017-Nov-19 01:10 UTC.
Position N 35°25' E 139°41'.

Length 186 m; draft 7.1 m.

Type: Cargo ship. MMSI: 370552000.

Date/timePositionNaut miles runAvg speedWind from/ knotsBaromVisibWave heightAir tempDewpointWater temp
2017-Nov-13 02:00N 35°25' E 139°41'0 0.7
2017-Nov-13 01:29N 35°25' E 139°41'0 0.0
2017-Nov-13 01:00N 35°25' E 139°41'0 0.0
2017-Nov-13 00:30N 35°25' E 139°41'0 0.1
2017-Nov-13 00:00N 35°25' E 139°41'0 0.0
2017-Nov-12 23:30N 35°25' E 139°41'0 0.0
2017-Nov-12 23:00N 35°25' E 139°41'0 0.1
2017-Nov-12 22:30N 35°25' E 139°41'2 3.2
2017-Nov-12 22:00N 35°25' E 139°43'0 0.3
2017-Nov-12 21:30N 35°25' E 139°43'0 0.1
2017-Nov-12 21:00N 35°25' E 139°43'0 0.0
2017-Nov-12 20:27N 35°25' E 139°43'0 0.0
2017-Nov-12 20:00N 35°25' E 139°43'0 0.0
2017-Nov-12 19:30N 35°25' E 139°43'0 0.0
2017-Nov-12 19:00N 35°25' E 139°43'0 0.0
2017-Nov-12 18:30N 35°25' E 139°43'0 0.0
2017-Nov-12 18:00N 35°25' E 139°43'0 0.0
2017-Nov-12 17:27N 35°25' E 139°43'0 0.0
2017-Nov-12 17:00N 35°25' E 139°43'0 0.0
2017-Nov-12 16:30N 35°25' E 139°43'0 0.0
2017-Nov-12 16:00N 35°25' E 139°43'0 0.0
2017-Nov-12 15:30N 35°25' E 139°43'0 0.1
2017-Nov-12 15:00N 35°25' E 139°43'0 0.0
2017-Nov-12 14:30N 35°25' E 139°43'0 0.0
2017-Nov-12 14:00N 35°25' E 139°43'0 0.0
2017-Nov-12 13:30N 35°25' E 139°43'0 0.0
2017-Nov-12 13:00N 35°25' E 139°43'0 0.0
2017-Nov-12 12:30N 35°25' E 139°43'0 0.0
2017-Nov-12 12:00N 35°25' E 139°43'0 0.0
2017-Nov-12 11:30N 35°25' E 139°43'0 0.0
2017-Nov-12 11:00N 35°25' E 139°43'0 0.0
2017-Nov-12 10:30N 35°25' E 139°43'0 0.0
2017-Nov-12 10:00N 35°25' E 139°43'0 0.0
2017-Nov-12 09:30N 35°25' E 139°43'0 0.0
2017-Nov-12 09:00N 35°25' E 139°43'0 0.0
2017-Nov-12 08:30N 35°25' E 139°43'0 0.0
2017-Nov-12 08:00N 35°25' E 139°43'0 0.0
2017-Nov-12 07:30N 35°25' E 139°43'0 0.0
2017-Nov-12 07:00N 35°25' E 139°43'0 0.0
2017-Nov-12 06:30N 35°25' E 139°43'0 0.0
2017-Nov-12 06:00N 35°25' E 139°43'0 0.0
2017-Nov-12 05:30N 35°25' E 139°43'0 0.0
2017-Nov-12 05:00N 35°25' E 139°43'0 0.0
2017-Nov-12 04:30N 35°25' E 139°43'0 0.0
2017-Nov-12 04:00N 35°25' E 139°43'0 0.0
2017-Nov-12 03:30N 35°25' E 139°43'0 0.1
2017-Nov-12 03:00N 35°25' E 139°43'0 0.0
2017-Nov-12 02:30N 35°25' E 139°43'0 0.0
2017-Nov-12 02:00N 35°25' E 139°43'0 0.0
2017-Nov-12 01:30N 35°25' E 139°43'0 0.0
2017-Nov-12 01:00N 35°25' E 139°43'0 0.5
2017-Nov-12 00:30N 35°25' E 139°43'4 7.9
2017-Nov-12 00:00N 35°21' E 139°43'510.4
2017-Nov-11 23:30N 35°16' E 139°46'5 9.6
2017-Nov-11 23:00N 35°12' E 139°47'4 7.9
2017-Nov-11 22:30N 35°08' E 139°46'5 9.2
2017-Nov-11 22:00N 35°04' E 139°43'5 9.2
2017-Nov-11 21:30N 34°60' E 139°41'5 9.1
2017-Nov-11 21:00N 34°56' E 139°38'3 5.2
2017-Nov-11 20:30N 34°54' E 139°36'1 1.0
2017-Nov-11 20:00N 34°54' E 139°36'3 6.1
2017-Nov-11 19:30N 34°51' E 139°36'  

Dump ship's entire track history